sensor_id;sensor_type;location;lat;lon;timestamp;pressure;altitude;pressure_sealevel;temperature;humidity
76095;BME280;64821;13.710;100.604;2023-08-12T00:00:37;100744.69;;;35.92;41.70
76095;BME280;64821;13.710;100.604;2023-08-12T00:01:41;100743.16;;;35.94;42.07
76095;BME280;64821;13.710;100.604;2023-08-12T00:02:45;100737.31;;;35.96;42.08
76095;BME280;64821;13.710;100.604;2023-08-12T00:03:49;100713.56;;;35.79;42.34
76095;BME280;64821;13.710;100.604;2023-08-12T00:04:53;100743.16;;;35.94;42.27
76095;BME280;64821;13.710;100.604;2023-08-12T00:05:58;100744.44;;;35.97;42.23
76095;BME280;64821;13.710;100.604;2023-08-12T00:07:02;100731.13;;;35.87;42.06
76095;BME280;64821;13.710;100.604;2023-08-12T00:08:06;100752.03;;;36.00;42.15
76095;BME280;64821;13.710;100.604;2023-08-12T00:09:10;100761.09;;;36.01;42.05
76095;BME280;64821;13.710;100.604;2023-08-12T00:10:14;100769.38;;;36.01;41.90
76095;BME280;64821;13.710;100.604;2023-08-12T00:11:18;100764.66;;;36.01;41.88
76095;BME280;64821;13.710;100.604;2023-08-12T00:12:21;100767.63;;;35.96;42.09
76095;BME280;64821;13.710;100.604;2023-08-12T00:13:25;100766.50;;;35.97;41.89
76095;BME280;64821;13.710;100.604;2023-08-12T00:14:29;100766.97;;;35.99;42.36
76095;BME280;64821;13.710;100.604;2023-08-12T00:15:33;100772.59;;;36.03;42.07
76095;BME280;64821;13.710;100.604;2023-08-12T00:16:37;100773.03;;;36.05;42.09
76095;BME280;64821;13.710;100.604;2023-08-12T00:17:40;100771.88;;;36.06;42.27
76095;BME280;64821;13.710;100.604;2023-08-12T00:18:44;100775.91;;;36.08;41.80
76095;BME280;64821;13.710;100.604;2023-08-12T00:19:48;100777.53;;;36.09;42.09
76095;BME280;64821;13.710;100.604;2023-08-12T00:20:52;100778.31;;;36.10;42.21
76095;BME280;64821;13.710;100.604;2023-08-12T00:21:57;100779.47;;;36.09;42.79
76095;BME280;64821;13.710;100.604;2023-08-12T00:23:01;100774.53;;;36.02;42.24
76095;BME280;64821;13.710;100.604;2023-08-12T00:24:05;100776.50;;;36.02;42.29
76095;BME280;64821;13.710;100.604;2023-08-12T00:25:09;100787.28;;;36.07;42.12
76095;BME280;64821;13.710;100.604;2023-08-12T00:26:13;100785.31;;;36.07;42.33
76095;BME280;64821;13.710;100.604;2023-08-12T00:27:17;100794.75;;;36.06;42.42
76095;BME280;64821;13.710;100.604;2023-08-12T00:28:21;100797.16;;;36.08;42.26
76095;BME280;64821;13.710;100.604;2023-08-12T00:29:25;100794.06;;;36.09;42.11
76095;BME280;64821;13.710;100.604;2023-08-12T00:30:29;100793.72;;;36.11;42.01
76095;BME280;64821;13.710;100.604;2023-08-12T00:31:32;100796.13;;;36.12;42.07
76095;BME280;64821;13.710;100.604;2023-08-12T00:32:36;100793.38;;;36.12;42.11
76095;BME280;64821;13.710;100.604;2023-08-12T00:33:40;100795.34;;;36.12;42.43
76095;BME280;64821;13.710;100.604;2023-08-12T00:34:44;100798.56;;;36.14;42.40
76095;BME280;64821;13.710;100.604;2023-08-12T00:35:47;100803.69;;;36.15;42.32
76095;BME280;64821;13.710;100.604;2023-08-12T00:36:51;100806.47;;;36.15;42.31
76095;BME280;64821;13.710;100.604;2023-08-12T00:37:57;100772.00;;;35.97;42.68
76095;BME280;64821;13.710;100.604;2023-08-12T00:39:00;100805.31;;;36.16;42.55
76095;BME280;64821;13.710;100.604;2023-08-12T00:40:05;100806.47;;;36.15;42.19
76095;BME280;64821;13.710;100.604;2023-08-12T00:41:09;100803.69;;;36.15;42.31
76095;BME280;64821;13.710;100.604;2023-08-12T00:42:13;100795.00;;;36.13;42.52
76095;BME280;64821;13.710;100.604;2023-08-12T00:43:16;100809.34;;;36.19;42.29
76095;BME280;64821;13.710;100.604;2023-08-12T00:44:20;100813.41;;;36.21;42.55
76095;BME280;64821;13.710;100.604;2023-08-12T00:45:24;100807.88;;;36.21;42.38
76095;BME280;64821;13.710;100.604;2023-08-12T00:46:28;100812.59;;;36.21;42.67
76095;BME280;64821;13.710;100.604;2023-08-12T00:47:32;100807.88;;;36.21;42.43
76095;BME280;64821;13.710;100.604;2023-08-12T00:48:36;100807.38;;;36.19;42.54
76095;BME280;64821;13.710;100.604;2023-08-12T00:49:41;100814.53;;;36.20;42.70
76095;BME280;64821;13.710;100.604;2023-08-12T00:50:46;100810.94;;;36.20;42.45
76095;BME280;64821;13.710;100.604;2023-08-12T00:51:51;100818.91;;;36.21;42.74
76095;BME280;64821;13.710;100.604;2023-08-12T00:52:58;100823.28;;;36.22;43.33
76095;BME280;64821;13.710;100.604;2023-08-12T00:54:03;100815.00;;;36.22;42.94
76095;BME280;64821;13.710;100.604;2023-08-12T00:55:08;100826.38;;;36.21;42.74
76095;BME280;64821;13.710;100.604;2023-08-12T00:56:12;100820.06;;;36.20;42.80
76095;BME280;64821;13.710;100.604;2023-08-12T00:57:16;100817.41;;;36.24;42.68
76095;BME280;64821;13.710;100.604;2023-08-12T00:58:20;100821.44;;;36.26;42.73
76095;BME280;64821;13.710;100.604;2023-08-12T00:59:24;100822.00;;;36.32;42.84
76095;BME280;64821;13.710;100.604;2023-08-12T01:00:28;100823.72;;;36.37;42.68
76095;BME280;64821;13.710;100.604;2023-08-12T01:01:33;100821.06;;;36.40;42.77
76095;BME280;64821;13.710;100.604;2023-08-12T01:02:37;100829.00;;;36.42;42.50
76095;BME280;64821;13.710;100.604;2023-08-12T01:03:41;100812.13;;;36.31;42.82
76095;BME280;64821;13.710;100.604;2023-08-12T01:04:45;100814.88;;;36.43;42.48
76095;BME280;64821;13.710;100.604;2023-08-12T01:05:49;100832.31;;;36.47;42.44
76095;BME280;64821;13.710;100.604;2023-08-12T01:06:53;100814.41;;;36.41;42.75
76095;BME280;64821;13.710;100.604;2023-08-12T01:07:58;100827.94;;;36.46;42.90
76095;BME280;64821;13.710;100.604;2023-08-12T01:09:03;100822.44;;;36.46;42.72
76095;BME280;64821;13.710;100.604;2023-08-12T01:10:07;100833.94;;;36.48;42.70
76095;BME280;64821;13.710;100.604;2023-08-12T01:11:16;100839.44;;;36.48;43.28
76095;BME280;64821;13.710;100.604;2023-08-12T01:12:28;100812.13;;;36.31;43.36
76095;BME280;64821;13.710;100.604;2023-08-12T01:13:39;100843.03;;;36.49;43.65
76095;BME280;64821;13.710;100.604;2023-08-12T01:14:54;100844.16;;;36.48;43.66
76095;BME280;64821;13.710;100.604;2023-08-12T01:16:01;100853.50;;;36.43;43.36
76095;BME280;64821;13.710;100.604;2023-08-12T01:17:08;100821.09;;;36.28;43.15
76095;BME280;64821;13.710;100.604;2023-08-12T01:18:15;100823.16;;;36.31;43.17
76095;BME280;64821;13.710;100.604;2023-08-12T01:19:25;100838.44;;;36.41;44.21
76095;BME280;64821;13.710;100.604;2023-08-12T01:20:32;100836.94;;;36.43;42.88
76095;BME280;64821;13.710;100.604;2023-08-12T01:21:38;100833.00;;;36.44;43.23
76095;BME280;64821;13.710;100.604;2023-08-12T01:22:44;100828.28;;;36.45;42.92
76095;BME280;64821;13.710;100.604;2023-08-12T01:23:51;100835.53;;;36.49;43.39
76095;BME280;64821;13.710;100.604;2023-08-12T01:24:55;100836.34;;;36.50;42.99
76095;BME280;64821;13.710;100.604;2023-08-12T01:25:59;100837.97;;;36.51;42.91
76095;BME280;64821;13.710;100.604;2023-08-12T01:27:03;100830.25;;;36.44;42.88
76095;BME280;64821;13.710;100.604;2023-08-12T01:28:08;100838.78;;;36.51;42.73
76095;BME280;64821;13.710;100.604;2023-08-12T01:29:11;100836.56;;;36.57;42.92
76095;BME280;64821;13.710;100.604;2023-08-12T01:30:16;100839.44;;;36.60;42.80
76095;BME280;64821;13.710;100.604;2023-08-12T01:31:26;100839.19;;;36.65;43.22
76095;BME280;64821;13.710;100.604;2023-08-12T01:32:36;100837.94;;;36.75;43.10
76095;BME280;64821;13.710;100.604;2023-08-12T01:33:46;100845.97;;;36.80;42.52
76095;BME280;64821;13.710;100.604;2023-08-12T01:34:57;100844.09;;;36.84;42.88
76095;BME280;64821;13.710;100.604;2023-08-12T01:36:09;100819.88;;;36.78;43.06
76095;BME280;64821;13.710;100.604;2023-08-12T01:37:17;100839.03;;;36.86;42.64
76095;BME280;64821;13.710;100.604;2023-08-12T01:38:27;100846.63;;;36.89;42.76
76095;BME280;64821;13.710;100.604;2023-08-12T01:39:34;100841.91;;;36.90;42.55
76095;BME280;64821;13.710;100.604;2023-08-12T01:40:39;100845.84;;;36.89;42.28
76095;BME280;64821;13.710;100.604;2023-08-12T01:41:43;100846.63;;;36.89;42.76
76095;BME280;64821;13.710;100.604;2023-08-12T01:42:47;100849.47;;;36.93;42.26
76095;BME280;64821;13.710;100.604;2023-08-12T01:43:51;100846.84;;;36.96;42.32
76095;BME280;64821;13.710;100.604;2023-08-12T01:44:55;100848.19;;;37.02;42.15
76095;BME280;64821;13.710;100.604;2023-08-12T01:45:59;100836.78;;;37.04;42.12
76095;BME280;64821;13.710;100.604;2023-08-12T01:47:03;100846.69;;;37.17;41.98
76095;BME280;64821;13.710;100.604;2023-08-12T01:48:07;100848.81;;;37.24;41.74
76095;BME280;64821;13.710;100.604;2023-08-12T01:49:11;100841.69;;;37.23;41.78
76095;BME280;64821;13.710;100.604;2023-08-12T01:50:14;100847.66;;;37.25;42.05
76095;BME280;64821;13.710;100.604;2023-08-12T01:51:18;100848.94;;;37.27;41.82
76095;BME280;64821;13.710;100.604;2023-08-12T01:52:22;100852.16;;;37.29;41.90
76095;BME280;64821;13.710;100.604;2023-08-12T01:53:26;100847.44;;;37.30;41.86
76095;BME280;64821;13.710;100.604;2023-08-12T01:54:29;100851.38;;;37.45;41.33
76095;BME280;64821;13.710;100.604;2023-08-12T01:55:35;100845.16;;;37.48;41.29
76095;BME280;64821;13.710;100.604;2023-08-12T01:56:39;100849.00;;;37.59;41.23
76095;BME280;64821;13.710;100.604;2023-08-12T01:57:42;100843.69;;;37.66;41.08
76095;BME280;64821;13.710;100.604;2023-08-12T01:58:46;100847.97;;;37.79;40.78
76095;BME280;64821;13.710;100.604;2023-08-12T01:59:51;100850.56;;;37.88;40.58
76095;BME280;64821;13.710;100.604;2023-08-12T02:00:55;100846.19;;;37.87;40.63
76095;BME280;64821;13.710;100.604;2023-08-12T02:01:58;100847.44;;;37.89;40.95
76095;BME280;64821;13.710;100.604;2023-08-12T02:03:02;100856.91;;;37.88;40.58
76095;BME280;64821;13.710;100.604;2023-08-12T02:04:06;100848.03;;;37.83;40.76
76095;BME280;64821;13.710;100.604;2023-08-12T02:05:10;100854.38;;;37.83;41.02
76095;BME280;64821;13.710;100.604;2023-08-12T02:06:14;100854.38;;;37.83;41.04
76095;BME280;64821;13.710;100.604;2023-08-12T02:07:18;100853.94;;;37.81;40.65
76095;BME280;64821;13.710;100.604;2023-08-12T02:08:21;100851.44;;;37.76;40.88
76095;BME280;64821;13.710;100.604;2023-08-12T02:09:25;100852.94;;;37.73;40.74
76095;BME280;64821;13.710;100.604;2023-08-12T02:10:29;100853.31;;;37.72;40.88
76095;BME280;64821;13.710;100.604;2023-08-12T02:11:34;100855.25;;;37.71;41.27
76095;BME280;64821;13.710;100.604;2023-08-12T02:12:38;100840.34;;;37.60;41.22
76095;BME280;64821;13.710;100.604;2023-08-12T02:13:42;100850.00;;;37.66;41.08
76095;BME280;64821;13.710;100.604;2023-08-12T02:14:46;100852.78;;;37.66;41.13
76095;BME280;64821;13.710;100.604;2023-08-12T02:15:49;100842.78;;;37.62;40.72
76095;BME280;64821;13.710;100.604;2023-08-12T02:16:53;100824.66;;;37.49;41.32
76095;BME280;64821;13.710;100.604;2023-08-12T02:17:57;100846.09;;;37.67;40.71
76095;BME280;64821;13.710;100.604;2023-08-12T02:19:01;100841.50;;;37.59;40.87
76095;BME280;64821;13.710;100.604;2023-08-12T02:20:06;100847.25;;;37.66;40.65
76095;BME280;64821;13.710;100.604;2023-08-12T02:21:09;100848.41;;;37.65;40.73
76095;BME280;64821;13.710;100.604;2023-08-12T02:22:13;100853.13;;;37.65;40.74
76095;BME280;64821;13.710;100.604;2023-08-12T02:23:17;100847.59;;;37.65;40.57
76095;BME280;64821;13.710;100.604;2023-08-12T02:24:21;100835.88;;;37.56;40.76
76095;BME280;64821;13.710;100.604;2023-08-12T02:25:24;100850.34;;;37.65;40.63
76095;BME280;64821;13.710;100.604;2023-08-12T02:26:28;100846.34;;;37.62;40.88
76095;BME280;64821;13.710;100.604;2023-08-12T02:27:34;100848.84;;;37.67;40.16
76095;BME280;64821;13.710;100.604;2023-08-12T02:28:37;100846.25;;;37.74;40.45
76095;BME280;64821;13.710;100.604;2023-08-12T02:29:41;100835.66;;;37.76;40.57
76095;BME280;64821;13.710;100.604;2023-08-12T02:30:45;100835.38;;;37.82;40.06
76095;BME280;64821;13.710;100.604;2023-08-12T02:31:48;100840.91;;;37.82;40.28
76095;BME280;64821;13.710;100.604;2023-08-12T02:32:52;100838.59;;;37.84;40.19
76095;BME280;64821;13.710;100.604;2023-08-12T02:33:56;100842.97;;;37.85;40.19
76095;BME280;64821;13.710;100.604;2023-08-12T02:35:00;100835.03;;;37.83;40.27
76095;BME280;64821;13.710;100.604;2023-08-12T02:36:04;100821.94;;;37.80;40.10
76095;BME280;64821;13.710;100.604;2023-08-12T02:37:08;100835.66;;;37.92;40.03
76095;BME280;64821;13.710;100.604;2023-08-12T02:38:12;100832.97;;;37.96;40.18
76095;BME280;64821;13.710;100.604;2023-08-12T02:39:16;100822.63;;;37.93;39.75
76095;BME280;64821;13.710;100.604;2023-08-12T02:40:20;100828.34;;;38.00;40.25
76095;BME280;64821;13.710;100.604;2023-08-12T02:41:24;100824.84;;;38.03;40.00
76095;BME280;64821;13.710;100.604;2023-08-12T02:42:27;100798.09;;;37.91;40.29
76095;BME280;64821;13.710;100.604;2023-08-12T02:43:33;100829.00;;;38.09;39.80
76095;BME280;64821;13.710;100.604;2023-08-12T02:44:36;100828.59;;;38.10;40.12
76095;BME280;64821;13.710;100.604;2023-08-12T02:45:40;100828.25;;;38.12;39.96
76095;BME280;64821;13.710;100.604;2023-08-12T02:46:44;100825.13;;;38.13;39.94
76095;BME280;64821;13.710;100.604;2023-08-12T02:47:48;100804.69;;;38.02;39.95
76095;BME280;64821;13.710;100.604;2023-08-12T02:48:51;100814.41;;;38.12;39.75
76095;BME280;64821;13.710;100.604;2023-08-12T02:49:55;100825.84;;;38.26;39.70
76095;BME280;64821;13.710;100.604;2023-08-12T02:50:59;100817.53;;;38.26;39.79
76095;BME280;64821;13.710;100.604;2023-08-12T02:52:03;100820.00;;;38.31;39.53
76095;BME280;64821;13.710;100.604;2023-08-12T02:53:08;100824.13;;;38.37;39.70
76095;BME280;64821;13.710;100.604;2023-08-12T02:54:12;100827.31;;;38.39;39.62
76095;BME280;64821;13.710;100.604;2023-08-12T02:55:15;100800.03;;;38.22;39.16
76095;BME280;64821;13.710;100.604;2023-08-12T02:56:19;100828.41;;;38.35;39.17
76095;BME280;64821;13.710;100.604;2023-08-12T02:57:23;100814.81;;;38.30;39.62
76095;BME280;64821;13.710;100.604;2023-08-12T02:58:27;100828.19;;;38.43;38.95
76095;BME280;64821;13.710;100.604;2023-08-12T02:59:32;100821.84;;;38.43;39.03
76095;BME280;64821;13.710;100.604;2023-08-12T03:00:36;100827.38;;;38.43;39.26
76095;BME280;64821;13.710;100.604;2023-08-12T03:01:41;100831.75;;;38.44;38.87
76095;BME280;64821;13.710;100.604;2023-08-12T03:02:46;100810.69;;;38.39;39.13
76095;BME280;64821;13.710;100.604;2023-08-12T03:03:50;100817.13;;;38.43;39.27
76095;BME280;64821;13.710;100.604;2023-08-12T03:04:54;100821.84;;;38.43;39.18
76095;BME280;64821;13.710;100.604;2023-08-12T03:05:58;100822.56;;;38.40;39.06
76095;BME280;64821;13.710;100.604;2023-08-12T03:07:01;100821.00;;;38.39;39.41
76095;BME280;64821;13.710;100.604;2023-08-12T03:08:05;100781.13;;;38.24;39.20
76095;BME280;64821;13.710;100.604;2023-08-12T03:09:09;100806.41;;;38.42;38.91
76095;BME280;64821;13.710;100.604;2023-08-12T03:10:13;100813.19;;;38.44;38.87
76095;BME280;64821;13.710;100.604;2023-08-12T03:11:17;100814.44;;;38.47;39.09
76095;BME280;64821;13.710;100.604;2023-08-12T03:12:20;100807.66;;;38.44;39.37
76095;BME280;64821;13.710;100.604;2023-08-12T03:13:24;100797.47;;;38.48;39.00
76095;BME280;64821;13.710;100.604;2023-08-12T03:14:29;100812.31;;;38.56;38.75
76095;BME280;64821;13.710;100.604;2023-08-12T03:15:34;100810.34;;;38.57;38.54
76095;BME280;64821;13.710;100.604;2023-08-12T03:16:41;100803.63;;;38.58;38.51
76095;BME280;64821;13.710;100.604;2023-08-12T03:17:45;100811.94;;;38.58;39.02
76095;BME280;64821;13.710;100.604;2023-08-12T03:18:49;100784.44;;;38.49;38.82
76095;BME280;64821;13.710;100.604;2023-08-12T03:19:53;100813.75;;;38.69;38.84
76095;BME280;64821;13.710;100.604;2023-08-12T03:20:56;100784.97;;;38.55;38.42
76095;BME280;64821;13.710;100.604;2023-08-12T03:22:00;100806.84;;;38.79;38.45
76095;BME280;64821;13.710;100.604;2023-08-12T03:23:04;100808.53;;;38.83;39.09
76095;BME280;64821;13.710;100.604;2023-08-12T03:24:08;100805.44;;;38.88;38.77
76095;BME280;64821;13.710;100.604;2023-08-12T03:25:12;100813.94;;;38.96;38.52
76095;BME280;64821;13.710;100.604;2023-08-12T03:26:15;100778.78;;;38.80;38.43
76095;BME280;64821;13.710;100.604;2023-08-12T03:27:19;100798.38;;;38.91;38.31
76095;BME280;64821;13.710;100.604;2023-08-12T03:28:23;100800.44;;;38.94;38.44
76095;BME280;64821;13.710;100.604;2023-08-12T03:29:27;100809.53;;;38.95;38.54
76095;BME280;64821;13.710;100.604;2023-08-12T03:30:30;100804.28;;;38.90;38.39
76095;BME280;64821;13.710;100.604;2023-08-12T03:31:36;100797.88;;;38.85;38.49
76095;BME280;64821;13.710;100.604;2023-08-12T03:32:40;100795.25;;;38.93;38.47
76095;BME280;64821;13.710;100.604;2023-08-12T03:33:43;100796.22;;;39.00;38.92
76095;BME280;64821;13.710;100.604;2023-08-12T03:34:47;100800.31;;;39.06;38.31
76095;BME280;64821;13.710;100.604;2023-08-12T03:35:51;100801.53;;;39.09;37.93
76095;BME280;64821;13.710;100.604;2023-08-12T03:36:55;100799.16;;;39.07;38.23
76095;BME280;64821;13.710;100.604;2023-08-12T03:37:58;100796.50;;;39.14;37.85
76095;BME280;64821;13.710;100.604;2023-08-12T03:39:02;100786.94;;;39.12;37.85
76095;BME280;64821;13.710;100.604;2023-08-12T03:40:07;100796.63;;;39.21;38.32
76095;BME280;64821;13.710;100.604;2023-08-12T03:41:11;100777.59;;;39.20;37.82
76095;BME280;64821;13.710;100.604;2023-08-12T03:42:15;100784.84;;;39.28;38.29
76095;BME280;64821;13.710;100.604;2023-08-12T03:43:19;100785.00;;;39.35;37.48
76095;BME280;64821;13.710;100.604;2023-08-12T03:44:22;100788.63;;;39.39;37.88
76095;BME280;64821;13.710;100.604;2023-08-12T03:45:26;100790.34;;;39.44;38.32
76095;BME280;64821;13.710;100.604;2023-08-12T03:46:30;100782.03;;;39.44;37.84
76095;BME280;64821;13.710;100.604;2023-08-12T03:47:35;100779.50;;;39.39;37.80
76095;BME280;64821;13.710;100.604;2023-08-12T03:48:39;100780.53;;;39.50;37.32
76095;BME280;64821;13.710;100.604;2023-08-12T03:49:43;100779.06;;;39.56;37.93
76095;BME280;64821;13.710;100.604;2023-08-12T03:50:46;100787.50;;;39.63;37.88
76095;BME280;64821;13.710;100.604;2023-08-12T03:51:50;100765.22;;;39.56;36.92
76095;BME280;64821;13.710;100.604;2023-08-12T03:52:54;100774.25;;;39.53;37.53
76095;BME280;64821;13.710;100.604;2023-08-12T03:53:58;100780.59;;;39.53;37.14
76095;BME280;64821;13.710;100.604;2023-08-12T03:55:01;100777.41;;;39.51;37.49
76095;BME280;64821;13.710;100.604;2023-08-12T03:56:05;100779.72;;;39.49;37.52
76095;BME280;64821;13.710;100.604;2023-08-12T03:57:09;100778.88;;;39.45;37.05
76095;BME280;64821;13.710;100.604;2023-08-12T03:58:13;100774.50;;;39.44;36.96
76095;BME280;64821;13.710;100.604;2023-08-12T03:59:17;100776.47;;;39.44;37.44
76095;BME280;64821;13.710;100.604;2023-08-12T04:00:20;100772.53;;;39.45;37.48
76095;BME280;64821;13.710;100.604;2023-08-12T04:01:24;100769.78;;;39.45;37.43
76095;BME280;64821;13.710;100.604;2023-08-12T04:02:28;100768.97;;;39.44;37.58
76095;BME280;64821;13.710;100.604;2023-08-12T04:03:33;100768.91;;;39.41;36.57
76095;BME280;64821;13.710;100.604;2023-08-12T04:04:37;100765.25;;;39.37;37.42
76095;BME280;64821;13.710;100.604;2023-08-12T04:05:48;100742.81;;;39.22;35.42
76095;BME280;64821;13.710;100.604;2023-08-12T04:06:51;100768.09;;;39.40;37.57
76095;BME280;64821;13.710;100.604;2023-08-12T04:07:55;100768.09;;;39.40;37.40
76095;BME280;64821;13.710;100.604;2023-08-12T04:08:59;100755.38;;;39.39;37.59
76095;BME280;64821;13.710;100.604;2023-08-12T04:10:03;100766.91;;;39.41;35.59
76095;BME280;64821;13.710;100.604;2023-08-12T04:11:07;100767.63;;;39.38;37.22
76095;BME280;64821;13.710;100.604;2023-08-12T04:12:11;100766.81;;;39.38;36.70
76095;BME280;64821;13.710;100.604;2023-08-12T04:13:15;100772.75;;;39.36;37.22
76095;BME280;64821;13.710;100.604;2023-08-12T04:14:18;100775.09;;;39.34;36.84
76095;BME280;64821;13.710;100.604;2023-08-12T04:15:22;100768.38;;;39.35;37.09
76095;BME280;64821;13.710;100.604;2023-08-12T04:16:26;100765.25;;;39.37;37.14
76095;BME280;64821;13.710;100.604;2023-08-12T04:17:30;100765.31;;;39.40;37.00
76095;BME280;64821;13.710;100.604;2023-08-12T04:18:35;100768.16;;;39.44;36.28
76095;BME280;64821;13.710;100.604;2023-08-12T04:19:39;100741.47;;;39.36;37.02
76095;BME280;64821;13.710;100.604;2023-08-12T04:20:44;100764.78;;;39.54;36.95
76095;BME280;64821;13.710;100.604;2023-08-12T04:21:48;100761.25;;;39.57;36.07
76095;BME280;64821;13.710;100.604;2023-08-12T04:22:52;100771.66;;;39.64;36.47
76095;BME280;64821;13.710;100.604;2023-08-12T04:23:55;100768.19;;;39.70;36.47
76095;BME280;64821;13.710;100.604;2023-08-12T04:24:59;100760.31;;;39.72;35.75
76095;BME280;64821;13.710;100.604;2023-08-12T04:26:03;100757.16;;;39.74;36.79
76095;BME280;64821;13.710;100.604;2023-08-12T04:27:07;100744.78;;;39.68;36.32
76095;BME280;64821;13.710;100.604;2023-08-12T04:28:11;100760.06;;;39.81;36.37
76095;BME280;64821;13.710;100.604;2023-08-12T04:29:15;100756.91;;;39.82;36.35
76095;BME280;64821;13.710;100.604;2023-08-12T04:30:19;100758.06;;;39.81;35.81
76095;BME280;64821;13.710;100.604;2023-08-12T04:31:23;100757.72;;;39.83;36.29
76095;BME280;64821;13.710;100.604;2023-08-12T04:32:26;100754.13;;;39.82;36.72
76095;BME280;64821;13.710;100.604;2023-08-12T04:33:30;100757.72;;;39.83;36.34
76095;BME280;64821;13.710;100.604;2023-08-12T04:34:35;100756.56;;;39.84;35.77
76095;BME280;64821;13.710;100.604;2023-08-12T04:35:40;100750.66;;;39.85;36.64
76095;BME280;64821;13.710;100.604;2023-08-12T04:36:43;100753.03;;;39.87;35.98
76095;BME280;64821;13.710;100.604;2023-08-12T04:37:47;100760.31;;;39.95;35.64
76095;BME280;64821;13.710;100.604;2023-08-12T04:38:51;100757.19;;;40.00;36.16
76095;BME280;64821;13.710;100.604;2023-08-12T04:39:55;100746.59;;;40.06;35.72
76095;BME280;64821;13.710;100.604;2023-08-12T04:40:59;100748.56;;;40.05;35.78
76095;BME280;64821;13.710;100.604;2023-08-12T04:42:03;100741.88;;;40.10;36.11
76095;BME280;64821;13.710;100.604;2023-08-12T04:43:08;100736.75;;;40.12;35.55
76095;BME280;64821;13.710;100.604;2023-08-12T04:44:11;100724.00;;;40.07;35.32
76095;BME280;64821;13.710;100.604;2023-08-12T04:45:15;100719.25;;;40.08;35.51
76095;BME280;64821;13.710;100.604;2023-08-12T04:46:19;100745.78;;;40.32;35.86
76095;BME280;64821;13.710;100.604;2023-08-12T04:47:23;100719.41;;;40.18;35.86
76095;BME280;64821;13.710;100.604;2023-08-12T04:48:31;100744.63;;;40.36;34.62
76095;BME280;64821;13.710;100.604;2023-08-12T04:49:36;100728.38;;;40.35;34.77
76095;BME280;64821;13.710;100.604;2023-08-12T04:50:41;100725.59;;;40.35;35.77
76095;BME280;64821;13.710;100.604;2023-08-12T04:51:45;100725.97;;;40.33;35.75
76095;BME280;64821;13.710;100.604;2023-08-12T04:52:48;100731.53;;;40.33;35.55
76095;BME280;64821;13.710;100.604;2023-08-12T04:53:52;100734.72;;;40.35;35.67
76095;BME280;64821;13.710;100.604;2023-08-12T04:54:56;100720.84;;;40.35;35.70
76095;BME280;64821;13.710;100.604;2023-08-12T04:55:59;100727.59;;;40.38;35.62
76095;BME280;64821;13.710;100.604;2023-08-12T04:57:03;100715.31;;;40.39;34.88
76095;BME280;64821;13.710;100.604;2023-08-12T04:58:07;100716.19;;;40.43;34.80
76095;BME280;64821;13.710;100.604;2023-08-12T04:59:11;100711.44;;;40.43;35.55
76095;BME280;64821;13.710;100.604;2023-08-12T05:00:14;100709.84;;;40.42;35.12
76095;BME280;64821;13.710;100.604;2023-08-12T05:01:18;100706.63;;;40.40;34.95
76095;BME280;64821;13.710;100.604;2023-08-12T05:02:22;100711.81;;;40.42;35.13
76095;BME280;64821;13.710;100.604;2023-08-12T05:03:26;100711.81;;;40.45;35.55
76095;BME280;64821;13.710;100.604;2023-08-12T05:04:30;100704.72;;;40.48;35.10
76095;BME280;64821;13.710;100.604;2023-08-12T05:05:36;100701.53;;;40.46;33.93
76095;BME280;64821;13.710;100.604;2023-08-12T05:06:39;100697.19;;;40.48;35.19
76095;BME280;64821;13.710;100.604;2023-08-12T05:07:43;100693.31;;;40.53;34.98
76095;BME280;64821;13.710;100.604;2023-08-12T05:08:47;100696.06;;;40.53;35.36
76095;BME280;64821;13.710;100.604;2023-08-12T05:09:51;100691.28;;;40.50;35.06
76095;BME280;64821;13.710;100.604;2023-08-12T05:10:54;100686.53;;;40.50;34.98
76095;BME280;64821;13.710;100.604;2023-08-12T05:11:58;100689.38;;;40.57;35.19
76095;BME280;64821;13.710;100.604;2023-08-12T05:13:02;100676.22;;;40.51;34.71
76095;BME280;64821;13.710;100.604;2023-08-12T05:14:06;100684.53;;;40.51;34.71
76095;BME280;64821;13.710;100.604;2023-08-12T05:15:10;100699.97;;;40.48;34.72
76095;BME280;64821;13.710;100.604;2023-08-12T05:16:14;100691.63;;;40.45;34.74
76095;BME280;64821;13.710;100.604;2023-08-12T05:17:17;100682.88;;;40.43;34.69
76095;BME280;64821;13.710;100.604;2023-08-12T05:18:22;100680.91;;;40.43;34.18
76095;BME280;64821;13.710;100.604;2023-08-12T05:19:26;100686.06;;;40.45;35.09
76095;BME280;64821;13.710;100.604;2023-08-12T05:20:30;100678.91;;;40.44;34.61
76095;BME280;64821;13.710;100.604;2023-08-12T05:21:35;100677.56;;;40.30;34.16
76095;BME280;64821;13.710;100.604;2023-08-12T05:22:39;100687.06;;;40.29;35.42
76095;BME280;64821;13.710;100.604;2023-08-12T05:23:42;100690.63;;;40.30;34.92
76095;BME280;64821;13.710;100.604;2023-08-12T05:24:46;100679.47;;;40.26;35.21
76095;BME280;64821;13.710;100.604;2023-08-12T05:25:50;100679.06;;;40.24;35.49
76095;BME280;64821;13.710;100.604;2023-08-12T05:26:57;100682.19;;;40.23;35.55
76095;BME280;64821;13.710;100.604;2023-08-12T05:28:00;100671.00;;;40.16;35.28